Time;durP1;ratioP1;P1;durP2;ratioP2;P2;SDS_P1;SDS_P2;PMS_P1;PMS_P2;Temp;Humidity;BMP_temperature;BMP_pressure;BME280_temperature;BME280_humidity;BME280_pressure;Samples;Min_cycle;Max_cycle;Signal;HPM_P1;HPM_P2
2021/12/22 00:00:15;;;;;;;38.78;14.40;;;;;;;-4.23;100.00;102569.47;4945954;28;20069;-72
2021/12/22 00:02:46;;;;;;;43.30;14.70;;;;;;;-4.15;100.00;102584.44;4944580;28;20414;-73
2021/12/22 00:05:20;;;;;;;36.33;15.27;;;;;;;-4.18;100.00;102592.25;4930605;28;20074;-72
2021/12/22 00:07:45;;;;;;;37.22;16.75;;;;;;;-4.24;100.00;102591.31;4945945;28;20034;-72
2021/12/22 00:10:12;;;;;;;35.72;13.52;;;;;;;-4.22;100.00;102589.59;4946187;28;20520;-73
2021/12/22 00:12:37;;;;;;;36.00;14.68;;;;;;;-4.30;100.00;102572.88;4945659;28;20046;-72
2021/12/22 00:15:04;;;;;;;33.38;14.07;;;;;;;-4.28;100.00;102584.25;4941846;28;20039;-72
2021/12/22 00:17:29;;;;;;;40.35;15.13;;;;;;;-4.42;100.00;102572.75;4963369;28;20031;-73
2021/12/22 00:19:54;;;;;;;33.85;14.60;;;;;;;-4.47;100.00;102574.41;4946197;28;20037;-72
2021/12/22 00:22:20;;;;;;;33.28;13.25;;;;;;;-4.50;100.00;102575.25;4932319;28;20031;-72
2021/12/22 00:24:45;;;;;;;40.63;14.63;;;;;;;-4.38;100.00;102595.53;4960252;28;20035;-73
2021/12/22 00:27:10;;;;;;;31.30;14.05;;;;;;;-4.38;100.00;102599.00;4962841;28;20034;-72
2021/12/22 00:29:36;;;;;;;36.78;14.32;;;;;;;-4.48;100.00;102591.00;4959603;28;20065;-72
2021/12/22 00:32:12;;;;;;;39.28;14.10;;;;;;;-4.59;100.00;102576.00;4943648;28;20244;-73
2021/12/22 00:34:47;;;;;;;36.95;14.98;;;;;;;-4.71;100.00;102558.38;4948474;28;20030;-72
2021/12/22 00:37:15;;;;;;;37.47;15.15;;;;;;;-4.50;100.00;102592.72;4928999;28;20505;-72
2021/12/22 00:39:40;;;;;;;38.00;14.82;;;;;;;-4.57;100.00;102576.03;4943403;28;20027;-72
2021/12/22 00:42:06;;;;;;;41.67;14.63;;;;;;;-4.48;100.00;102583.13;4925024;28;20046;-73
2021/12/22 00:44:31;;;;;;;35.78;15.13;;;;;;;-4.52;100.00;102582.22;4940647;28;20085;-72
2021/12/22 00:46:57;;;;;;;37.47;15.63;;;;;;;-4.49;100.00;102582.25;4927913;28;20046;-73
2021/12/22 00:49:22;;;;;;;36.42;16.00;;;;;;;-4.54;100.00;102573.47;4936701;28;20030;-72
2021/12/22 00:51:47;;;;;;;38.60;15.85;;;;;;;-4.45;100.00;102581.44;4959625;28;20042;-72
2021/12/22 00:54:12;;;;;;;47.72;16.52;;;;;;;-4.51;100.00;102570.88;4924711;28;20112;-72
2021/12/22 00:56:38;;;;;;;33.80;14.35;;;;;;;-4.57;100.00;102574.28;4942010;28;20042;-72
2021/12/22 00:59:04;;;;;;;39.53;14.48;;;;;;;-4.61;100.00;102567.22;4937492;28;20079;-72
2021/12/22 01:01:29;;;;;;;40.83;15.55;;;;;;;-4.56;100.00;102575.19;4939112;28;20081;-72
2021/12/22 01:03:56;;;;;;;39.65;14.48;;;;;;;-4.42;100.00;102591.09;4960842;28;20110;-72
2021/12/22 01:06:22;;;;;;;42.10;15.88;;;;;;;-4.52;100.00;102564.75;4961638;28;20027;-72
2021/12/22 01:08:47;;;;;;;44.13;15.50;;;;;;;-4.38;100.00;102587.66;4963540;28;20037;-72
2021/12/22 01:11:12;;;;;;;36.47;15.60;;;;;;;-4.43;100.00;102586.72;4947158;28;20105;-72
2021/12/22 01:13:38;;;;;;;33.45;14.10;;;;;;;-4.52;100.00;102587.47;4958700;28;20034;-71
2021/12/22 01:16:03;;;;;;;32.05;14.13;;;;;;;-4.60;100.00;102584.72;4961252;28;20359;-73
2021/12/22 01:18:32;;;;;;;46.05;15.55;;;;;;;-4.70;100.00;102586.34;4964364;28;20046;-72
2021/12/22 01:21:10;;;;;;;40.58;15.98;;;;;;;-4.70;100.00;102578.47;4942640;28;20126;-72
2021/12/22 01:23:48;;;;;;;36.28;13.85;;;;;;;-4.89;100.00;102560.75;4964463;28;20031;-72
2021/12/22 01:26:13;;;;;;;39.35;15.05;;;;;;;-4.86;100.00;102573.91;4949624;28;20503;-72
2021/12/22 01:28:42;;;;;;;40.28;14.68;;;;;;;-4.87;100.00;102570.38;4944606;28;20058;-72
2021/12/22 01:31:13;;;;;;;38.60;16.48;;;;;;;-4.75;100.00;102595.00;4933098;28;20363;-72
2021/12/22 01:33:38;;;;;;;42.90;14.10;;;;;;;-4.76;100.00;102578.38;4934883;28;20038;-72
2021/12/22 01:36:04;;;;;;;41.92;15.68;;;;;;;-4.73;100.00;102583.69;4947097;28;20399;-72
2021/12/22 01:38:29;;;;;;;40.97;15.75;;;;;;;-4.82;100.00;102573.94;4927883;28;20073;-72
2021/12/22 01:40:54;;;;;;;39.40;16.15;;;;;;;-4.73;100.00;102599.41;4926600;28;20494;-72
2021/12/22 01:43:20;;;;;;;36.78;14.73;;;;;;;-4.82;100.00;102571.34;4946868;28;20490;-72
2021/12/22 01:51:56;;;;;;;53.45;18.38;;;;;;;-4.72;100.00;102581.94;4950357;28;20392;-72
2021/12/22 01:54:24;;;;;;;49.53;16.15;;;;;;;-4.82;100.00;102578.31;4961884;28;20581;-72
2021/12/22 01:56:51;;;;;;;47.42;14.32;;;;;;;-4.95;100.00;102561.56;4962367;28;20126;-72
2021/12/22 01:59:17;;;;;;;41.00;15.60;;;;;;;-4.92;100.00;102558.97;4944023;28;20043;-72
2021/12/22 02:01:42;;;;;;;41.65;15.48;;;;;;;-4.98;100.00;102551.88;4946419;28;20035;-72
2021/12/22 02:04:13;;;;;;;48.83;17.58;;;;;;;-4.87;100.00;102567.75;4949594;28;20070;-72
2021/12/22 02:06:40;;;;;;;50.05;19.75;;;;;;;-4.86;100.00;102564.28;4965251;28;20043;-72
2021/12/22 02:09:06;;;;;;;53.42;18.08;;;;;;;-4.82;100.00;102581.81;4948262;28;20463;-72
2021/12/22 02:11:31;;;;;;;50.08;15.85;;;;;;;-4.94;100.00;102573.78;4948752;28;20065;-72
2021/12/22 02:14:01;;;;;;;40.90;14.45;;;;;;;-4.89;100.00;102582.56;4957507;28;20039;-72
2021/12/22 02:16:30;;;;;;;40.95;15.07;;;;;;;-4.93;100.00;102570.31;4933072;28;20073;-72
2021/12/22 02:18:57;;;;;;;42.97;15.88;;;;;;;-4.83;100.00;102572.19;4946546;28;20034;-72
2021/12/22 02:21:24;;;;;;;48.15;15.88;;;;;;;-4.78;100.00;102585.38;4949843;28;20031;-72
2021/12/22 02:23:50;;;;;;;38.40;15.05;;;;;;;-4.82;100.00;102570.47;4961431;28;20039;-72
2021/12/22 02:26:38;;;;;;;40.17;14.98;;;;;;;-4.69;100.00;102585.50;4932363;28;20577;-72
2021/12/22 02:29:07;;;;;;;42.25;15.57;;;;;;;-4.78;100.00;102568.75;4931930;28;20035;-72
2021/12/22 02:31:39;;;;;;;44.03;16.08;;;;;;;-4.74;100.00;102575.81;4966246;28;20037;-72
2021/12/22 02:34:06;;;;;;;38.97;16.10;;;;;;;-4.77;100.00;102583.63;4932800;28;20031;-72
2021/12/22 02:36:38;;;;;;;42.63;16.85;;;;;;;-4.93;100.00;102580.78;4930607;28;20035;-72
2021/12/22 02:39:04;;;;;;;43.15;15.60;;;;;;;-4.88;100.00;102586.97;4941033;28;20039;-72
2021/12/22 02:41:31;;;;;;;40.75;16.40;;;;;;;-4.98;100.00;102564.97;4934961;28;20023;-72
2021/12/22 02:43:58;;;;;;;40.22;14.93;;;;;;;-4.92;100.00;102569.47;4945152;28;20152;-72
2021/12/22 02:46:30;;;;;;;48.70;17.42;;;;;;;-4.99;100.00;102554.50;4944230;28;20034;-72
2021/12/22 02:48:56;;;;;;;46.38;17.48;;;;;;;-4.94;100.00;102557.16;4944267;28;20027;-71
2021/12/22 02:51:22;;;;;;;45.22;17.08;;;;;;;-4.79;100.00;102577.47;4943623;28;20034;-72
2021/12/22 02:54:06;;;;;;;46.72;16.67;;;;;;;-4.76;100.00;102575.78;4945431;28;20026;-72
2021/12/22 02:59:12;;;;;;;37.30;14.73;;;;;;;-4.83;100.00;102566.94;4946809;28;20038;-72
2021/12/22 03:04:20;;;;;;;44.92;16.48;;;;;;;-4.72;100.00;102588.06;4945866;28;20023;-72
2021/12/22 03:06:54;;;;;;;53.47;19.35;;;;;;;-4.83;100.00;102559.09;4943423;28;20109;-72
2021/12/22 03:09:23;;;;;;;49.47;16.23;;;;;;;-4.69;100.00;102576.75;4954332;28;20031;-72
2021/12/22 03:11:49;;;;;;;43.28;15.63;;;;;;;-4.78;100.00;102567.03;4944026;28;20033;-72
2021/12/22 03:14:15;;;;;;;45.40;15.32;;;;;;;-4.62;100.00;102590.81;4960961;28;20045;-72
2021/12/22 03:16:43;;;;;;;40.92;14.95;;;;;;;-4.76;100.00;102569.66;4945066;28;20039;-72
2021/12/22 03:19:10;;;;;;;35.53;14.15;;;;;;;-4.65;100.00;102588.16;4931891;28;20040;-72
2021/12/22 03:21:36;;;;;;;38.67;13.55;;;;;;;-4.80;100.00;102567.84;4930416;28;20151;-72
2021/12/22 03:24:01;;;;;;;43.38;14.02;;;;;;;-4.73;100.00;102591.53;4945029;28;20641;-72
2021/12/22 03:26:28;;;;;;;47.20;15.38;;;;;;;-4.75;100.00;102592.38;4945342;28;20590;-72
2021/12/22 03:28:54;;;;;;;42.67;15.73;;;;;;;-4.69;100.00;102602.97;4944813;28;20027;-72
2021/12/22 03:31:19;;;;;;;43.03;15.73;;;;;;;-4.77;100.00;102589.75;4929425;28;20046;-72
2021/12/22 03:33:44;;;;;;;43.10;14.05;;;;;;;-4.78;100.00;102593.25;4930620;28;20081;-72
2021/12/22 03:36:10;;;;;;;38.78;12.82;;;;;;;-4.82;100.00;102586.19;4939789;28;20118;-72
2021/12/22 03:38:36;;;;;;;47.88;14.95;;;;;;;-4.70;100.00;102603.81;4943152;28;20472;-72
2021/12/22 03:41:03;;;;;;;45.22;14.40;;;;;;;-4.68;100.00;102607.34;4930820;28;20031;-72
2021/12/22 03:43:29;;;;;;;45.20;15.05;;;;;;;-4.77;100.00;102591.50;4958284;28;20778;-72
2021/12/22 03:45:54;;;;;;;41.60;14.73;;;;;;;-4.80;100.00;102583.56;4946561;28;20548;-72
2021/12/22 03:48:20;;;;;;;56.72;17.95;;;;;;;-4.90;100.00;102570.34;4926783;28;20034;-72
2021/12/22 03:50:45;;;;;;;42.60;15.15;;;;;;;-4.89;100.00;102560.75;4947518;28;20031;-72
2021/12/22 03:53:12;;;;;;;46.92;16.48;;;;;;;-4.99;100.00;102567.59;4943533;28;20090;-72
2021/12/22 03:55:37;;;;;;;47.78;15.77;;;;;;;-5.14;100.00;102563.88;4931532;28;20039;-72
2021/12/22 03:58:04;;;;;;;44.17;15.45;;;;;;;-5.17;100.00;102573.44;4922733;28;20030;-72
2021/12/22 04:00:30;;;;;;;51.10;15.93;;;;;;;-5.18;100.00;102577.81;4931392;28;20033;-72
2021/12/22 04:02:56;;;;;;;57.00;20.73;;;;;;;-5.23;100.00;102579.47;4944073;28;20150;-72
2021/12/22 04:05:22;;;;;;;39.65;15.25;;;;;;;-5.28;100.00;102570.66;4930609;28;20034;-72
2021/12/22 04:07:47;;;;;;;45.08;15.80;;;;;;;-5.16;100.00;102581.28;4929384;28;20034;-72
2021/12/22 04:10:20;;;;;;;37.78;14.48;;;;;;;-5.16;100.00;102570.81;4929852;28;20427;-72
2021/12/22 04:12:51;;;;;;;51.10;15.57;;;;;;;-5.13;100.00;102575.25;4931152;28;20031;-72
2021/12/22 04:15:17;;;;;;;51.38;17.80;;;;;;;-5.06;100.00;102573.59;4947601;28;20037;-72
2021/12/22 04:17:42;;;;;;;47.67;16.08;;;;;;;-5.12;100.00;102579.63;4942514;28;20502;-72
2021/12/22 04:20:09;;;;;;;42.97;14.95;;;;;;;-5.10;100.00;102571.78;4946384;28;20105;-72
2021/12/22 04:22:34;;;;;;;36.60;13.82;;;;;;;-5.18;100.00;102554.22;4928289;28;20038;-72
2021/12/22 04:24:59;;;;;;;38.97;14.63;;;;;;;-5.18;100.00;102561.19;4940935;28;20034;-72
2021/12/22 04:27:25;;;;;;;47.00;13.35;;;;;;;-5.13;100.00;102565.63;4939266;28;20079;-72
2021/12/22 04:29:50;;;;;;;38.00;12.65;;;;;;;-5.17;100.00;102556.00;4946884;28;20061;-72
2021/12/22 04:32:15;;;;;;;37.42;14.27;;;;;;;-5.11;100.00;102565.69;4941940;28;20488;-72
2021/12/22 04:34:40;;;;;;;38.80;13.52;;;;;;;-5.18;100.00;102554.22;4961257;28;20050;-72
2021/12/22 04:37:06;;;;;;;40.85;13.57;;;;;;;-5.10;100.00;102550.81;4930041;28;20045;-72
2021/12/22 04:39:33;;;;;;;46.78;16.60;;;;;;;-5.10;100.00;102551.72;4940720;28;20058;-72
2021/12/22 04:41:59;;;;;;;45.90;14.35;;;;;;;-5.08;100.00;102547.38;4928238;28;20109;-72
2021/12/22 04:44:25;;;;;;;43.55;15.38;;;;;;;-4.98;100.00;102557.13;4939988;28;20062;-72
2021/12/22 04:46:50;;;;;;;34.88;13.45;;;;;;;-5.10;100.00;102536.00;4942500;28;20284;-72
2021/12/22 04:49:15;;;;;;;41.65;13.85;;;;;;;-5.00;100.00;102545.75;4939264;28;20026;-72
2021/12/22 04:51:48;;;;;;;32.55;13.13;;;;;;;-5.06;100.00;102539.53;4946604;28;20147;-72
2021/12/22 04:54:29;;;;;;;40.33;12.98;;;;;;;-4.99;100.00;102547.50;4933489;28;20035;-72
2021/12/22 04:56:56;;;;;;;43.42;14.65;;;;;;;-5.05;100.00;102533.44;4945093;28;20055;-72
2021/12/22 04:59:22;;;;;;;39.00;15.75;;;;;;;-5.08;100.00;102536.00;4926117;28;20023;-72
2021/12/22 05:01:47;;;;;;;45.70;14.73;;;;;;;-5.16;100.00;102526.28;4942040;28;20113;-72
2021/12/22 05:04:12;;;;;;;41.75;14.70;;;;;;;-5.13;100.00;102533.34;4940714;28;20185;-72
2021/12/22 05:06:38;;;;;;;37.25;13.57;;;;;;;-5.19;100.00;102520.13;4942724;28;20030;-72
2021/12/22 05:09:04;;;;;;;44.13;15.95;;;;;;;-5.23;100.00;102523.56;4931003;28;20026;-72
2021/12/22 05:11:30;;;;;;;48.10;15.75;;;;;;;-5.33;100.00;102526.06;4944373;28;20515;-72
2021/12/22 05:13:55;;;;;;;40.75;15.38;;;;;;;-5.34;100.00;102531.25;4941467;28;20030;-72
2021/12/22 05:16:21;;;;;;;50.78;14.85;;;;;;;-5.45;100.00;102504.91;4947751;28;20066;-72
2021/12/22 05:18:51;;;;;;;44.35;14.40;;;;;;;-5.34;100.00;102532.16;4957487;28;20070;-72
2021/12/22 05:21:17;;;;;;;38.95;15.57;;;;;;;-5.27;100.00;102522.66;4932674;28;20042;-72
2021/12/22 05:23:43;;;;;;;49.15;18.42;;;;;;;-5.22;100.00;102523.59;4943189;28;20077;-72
2021/12/22 05:26:08;;;;;;;55.22;18.98;;;;;;;-5.22;100.00;102513.13;4941342;28;20027;-72
2021/12/22 05:28:34;;;;;;;50.58;17.05;;;;;;;-5.27;100.00;102520.03;4929206;28;20085;-71
2021/12/22 05:30:59;;;;;;;49.90;19.88;;;;;;;-5.03;100.00;102539.59;4966841;28;20536;-72
2021/12/22 05:33:24;;;;;;;43.78;16.63;;;;;;;-5.04;100.00;102524.72;4944120;28;20129;-72
2021/12/22 05:35:49;;;;;;;43.08;15.25;;;;;;;-4.95;100.00;102537.97;4944498;28;20445;-72
2021/12/22 05:38:15;;;;;;;50.60;19.73;;;;;;;-4.87;100.00;102543.31;4941582;28;20461;-71
2021/12/22 05:40:40;;;;;;;50.53;17.85;;;;;;;-4.84;100.00;102532.88;4945090;28;20487;-72
2021/12/22 05:43:06;;;;;;;48.28;18.27;;;;;;;-5.00;100.00;102518.69;4940052;28;20027;-72
2021/12/22 05:45:31;;;;;;;52.80;17.00;;;;;;;-4.83;100.00;102530.25;4937851;28;20154;-72
2021/12/22 05:47:56;;;;;;;36.58;14.82;;;;;;;-5.08;100.00;102502.84;4926813;28;20467;-72
2021/12/22 05:50:23;;;;;;;40.88;16.77;;;;;;;-4.93;100.00;102520.53;4961306;28;20027;-72
2021/12/22 05:52:48;;;;;;;55.05;20.02;;;;;;;-4.91;100.00;102500.47;4944743;28;20037;-71
2021/12/22 05:55:14;;;;;;;51.80;17.27;;;;;;;-4.88;100.00;102529.31;4945829;28;20039;-71
2021/12/22 05:57:39;;;;;;;36.97;14.98;;;;;;;-4.93;100.00;102498.69;4927016;28;20030;-72
2021/12/22 06:00:06;;;;;;;42.92;17.13;;;;;;;-4.85;100.00;102515.38;4950867;28;20597;-72
2021/12/22 06:02:31;;;;;;;39.88;14.02;;;;;;;-4.86;100.00;102511.00;4951012;28;20062;-72
2021/12/22 06:04:56;;;;;;;45.47;14.15;;;;;;;-4.86;100.00;102522.34;4962655;28;20189;-72
2021/12/22 06:07:22;;;;;;;53.95;18.58;;;;;;;-4.77;100.00;102532.09;4931246;28;20443;-71
2021/12/22 06:09:47;;;;;;;47.25;14.95;;;;;;;-4.85;100.00;102513.63;4930614;28;20023;-71
2021/12/22 06:12:13;;;;;;;43.58;15.50;;;;;;;-5.03;100.00;102503.78;4945438;28;20039;-72
2021/12/22 06:14:38;;;;;;;38.95;14.40;;;;;;;-4.98;100.00;102512.59;4932973;28;20511;-71
2021/12/22 06:17:04;;;;;;;36.03;14.30;;;;;;;-5.00;100.00;102501.19;4933635;28;20110;-71
2021/12/22 06:19:29;;;;;;;52.95;17.48;;;;;;;-4.96;100.00;102512.63;4932253;28;20577;-71
2021/12/22 06:21:55;;;;;;;31.13;11.85;;;;;;;-4.93;100.00;102504.81;4943270;28;20542;-72
2021/12/22 06:24:20;;;;;;;44.72;16.30;;;;;;;-4.87;100.00;102527.59;4944827;28;20122;-71
2021/12/22 06:26:45;;;;;;;41.05;16.10;;;;;;;-4.91;100.00;102518.81;4949964;28;20034;-72
2021/12/22 06:29:11;;;;;;;33.60;13.38;;;;;;;-4.97;100.00;102526.59;4943328;28;20034;-71
2021/12/22 06:31:36;;;;;;;32.15;13.60;;;;;;;-5.09;100.00;102518.53;4944909;28;20458;-71
2021/12/22 06:34:03;;;;;;;45.55;16.15;;;;;;;-5.18;100.00;102520.19;4958555;28;20495;-71
2021/12/22 06:36:28;;;;;;;38.13;14.85;;;;;;;-5.10;100.00;102525.53;4948208;28;20035;-71
2021/12/22 06:38:53;;;;;;;34.78;14.35;;;;;;;-5.17;100.00;102523.66;4944302;28;20081;-71
2021/12/22 06:41:19;;;;;;;39.25;13.13;;;;;;;-5.16;100.00;102528.03;4941257;28;20034;-71
2021/12/22 06:43:44;;;;;;;36.67;14.23;;;;;;;-5.23;100.00;102526.19;4946052;28;20037;-71
2021/12/22 06:46:09;;;;;;;31.75;12.73;;;;;;;-5.15;100.00;102530.69;4943976;28;20039;-71
2021/12/22 06:48:35;;;;;;;30.35;12.57;;;;;;;-5.16;100.00;102517.56;4945392;28;20063;-71
2021/12/22 06:51:00;;;;;;;38.92;13.30;;;;;;;-5.12;100.00;102533.34;4933176;28;20027;-71
2021/12/22 06:53:26;;;;;;;34.47;12.55;;;;;;;-5.13;100.00;102528.09;4945681;28;20534;-71
2021/12/22 06:55:51;;;;;;;32.45;12.07;;;;;;;-5.10;100.00;102533.38;4962361;28;20035;-71
2021/12/22 06:58:17;;;;;;;29.98;11.68;;;;;;;-5.08;100.00;102536.00;4963588;28;20034;-71
2021/12/22 07:00:42;;;;;;;29.40;10.63;;;;;;;-5.11;100.00;102536.84;4965558;28;20030;-71
2021/12/22 07:03:08;;;;;;;30.95;10.95;;;;;;;-5.19;100.00;102528.91;4960136;28;20491;-71
2021/12/22 07:05:33;;;;;;;34.05;11.57;;;;;;;-5.15;100.00;102541.16;4948243;28;20034;-71
2021/12/22 07:07:58;;;;;;;32.42;11.98;;;;;;;-5.20;100.00;102524.50;4962987;28;20035;-71
2021/12/22 07:10:24;;;;;;;35.50;11.77;;;;;;;-5.18;100.00;102529.75;4960441;28;20106;-71
2021/12/22 07:12:49;;;;;;;31.48;11.55;;;;;;;-5.15;100.00;102535.06;4947808;28;20034;-71
2021/12/22 07:15:17;;;;;;;31.05;11.73;;;;;;;-5.21;100.00;102534.94;4961397;28;20118;-71
2021/12/22 07:17:46;;;;;;;29.15;10.80;;;;;;;-5.15;100.00;102542.91;4946474;28;20514;-71
2021/12/22 07:20:12;;;;;;;29.83;11.60;;;;;;;-5.16;100.00;102543.75;4941527;28;20023;-71
2021/12/22 07:22:38;;;;;;;25.48;11.63;;;;;;;-5.18;100.00;102537.63;4946657;28;20042;-71
2021/12/22 07:25:05;;;;;;;32.70;12.93;;;;;;;-5.25;100.00;102528.78;4943407;28;20043;-71
2021/12/22 07:27:30;;;;;;;29.40;11.48;;;;;;;-5.29;100.00;102533.09;4961602;28;20067;-71
2021/12/22 07:29:55;;;;;;;29.02;11.43;;;;;;;-5.44;100.00;102519.78;4943452;28;20022;-71
2021/12/22 07:32:21;;;;;;;26.15;10.35;;;;;;;-5.40;100.00;102518.97;4945094;28;20030;-71
2021/12/22 07:35:03;;;;;;;27.52;11.70;;;;;;;-5.33;100.00;102530.41;4945324;28;20026;-71
2021/12/22 07:37:38;;;;;;;23.33;10.55;;;;;;;-5.33;100.00;102527.78;4966116;28;20030;-71
2021/12/22 07:40:05;;;;;;;29.35;10.95;;;;;;;-5.36;100.00;102523.41;4963693;28;20033;-71
2021/12/22 07:42:30;;;;;;;28.13;11.07;;;;;;;-5.28;100.00;102534.84;4946455;28;20035;-71
2021/12/22 07:44:55;;;;;;;28.60;11.45;;;;;;;-5.29;100.00;102529.59;4944054;28;20035;-71
2021/12/22 07:47:21;;;;;;;31.92;10.93;;;;;;;-5.29;100.00;102527.84;4961899;28;20508;-71
2021/12/22 07:49:46;;;;;;;29.27;11.93;;;;;;;-5.34;100.00;102524.31;4957986;28;20118;-71
2021/12/22 07:52:11;;;;;;;30.58;12.77;;;;;;;-5.31;100.00;102529.59;4938470;28;20718;-71
2021/12/22 07:54:38;;;;;;;27.27;11.82;;;;;;;-5.37;100.00;102529.50;4938754;28;20381;-71
2021/12/22 07:57:03;;;;;;;27.88;11.40;;;;;;;-5.46;100.00;102530.22;4941391;28;20563;-71
2021/12/22 07:59:29;;;;;;;34.40;13.35;;;;;;;-5.56;100.00;102517.84;4938588;28;20041;-71
2021/12/22 08:01:54;;;;;;;34.60;11.98;;;;;;;-5.49;100.00;102514.47;4940079;28;20030;-71
2021/12/22 08:04:19;;;;;;;35.03;12.35;;;;;;;-5.51;100.00;102507.44;4962402;28;20810;-71
2021/12/22 08:06:45;;;;;;;34.85;12.63;;;;;;;-5.61;100.00;102501.16;4959653;28;20484;-71
2021/12/22 08:09:10;;;;;;;39.53;14.45;;;;;;;-5.57;100.00;102482.03;4959544;28;20038;-71
2021/12/22 08:11:35;;;;;;;36.03;12.93;;;;;;;-5.60;100.00;102488.13;4943622;28;20112;-71
2021/12/22 08:14:01;;;;;;;27.67;11.23;;;;;;;-5.42;100.00;102507.59;4961036;28;20073;-71
2021/12/22 08:16:26;;;;;;;24.10;10.80;;;;;;;-5.45;100.00;102503.19;4961677;28;20031;-71
2021/12/22 08:18:51;;;;;;;30.40;11.48;;;;;;;-5.27;100.00;102506.94;4960065;28;20063;-71
2021/12/22 08:21:17;;;;;;;44.92;14.38;;;;;;;-5.12;100.00;102507.16;4944190;28;20039;-71
2021/12/22 08:23:42;;;;;;;30.83;12.88;;;;;;;-4.92;100.00;102511.81;4960090;28;20031;-71
2021/12/22 08:26:08;;;;;;;33.08;12.05;;;;;;;-4.77;100.00;102484.03;4957370;28;20038;-71
2021/12/22 08:28:33;;;;;;;40.35;14.98;;;;;;;-4.39;100.00;102505.47;4958225;28;20384;-72
2021/12/22 08:30:58;;;;;;;42.75;15.85;;;;;;;-4.32;100.00;102501.16;4941386;28;20054;-72
2021/12/22 08:33:26;;;;;;;35.38;13.98;;;;;;;-4.16;100.00;102511.84;4960930;28;20026;-71
2021/12/22 08:38:50;;;;;;;33.38;12.82;;;;;;;-4.05;100.00;102523.31;4959018;28;20041;-71
2021/12/22 08:41:20;;;;;;;35.55;14.48;;;;;;;-3.87;99.67;102516.50;4957494;28;20113;-71
2021/12/22 08:43:45;;;;;;;36.00;14.43;;;;;;;-3.71;98.53;102505.25;4941061;28;20066;-72
2021/12/22 08:46:10;;;;;;;33.10;13.43;;;;;;;-3.66;98.96;102507.91;4939363;28;20035;-72
2021/12/22 08:48:36;;;;;;;32.95;14.60;;;;;;;-3.63;99.03;102518.44;4958333;28;20034;-72
2021/12/22 08:51:01;;;;;;;28.90;13.20;;;;;;;-3.65;98.37;102497.44;4958976;28;20150;-72
2021/12/22 08:53:26;;;;;;;29.50;14.75;;;;;;;-3.49;99.04;102506.31;4958974;28;20027;-72
2021/12/22 08:55:52;;;;;;;25.55;13.30;;;;;;;-3.50;98.81;102485.28;4957093;28;20038;-72
2021/12/22 08:58:17;;;;;;;40.70;13.93;;;;;;;-3.31;98.63;102497.66;4943841;28;20129;-71
2021/12/22 09:00:43;;;;;;;31.48;15.27;;;;;;;-3.10;98.01;102495.16;4937277;28;20757;-72
2021/12/22 09:03:09;;;;;;;30.98;12.27;;;;;;;-3.07;96.80;102488.22;4955395;28;20529;-72
2021/12/22 09:05:34;;;;;;;23.35;10.73;;;;;;;-2.97;97.66;102504.91;4926789;28;20035;-72
2021/12/22 09:07:59;;;;;;;33.92;13.77;;;;;;;-2.86;96.90;102497.06;4937472;28;20765;-72
2021/12/22 09:10:25;;;;;;;26.90;12.93;;;;;;;-2.91;97.23;102514.56;4954069;28;20436;-72
2021/12/22 09:12:50;;;;;;;29.23;14.52;;;;;;;-2.78;97.01;102511.09;4944018;28;20579;-72
2021/12/22 09:15:17;;;;;;;28.15;11.93;;;;;;;-2.67;97.17;102526.06;4941604;28;20458;-72
2021/12/22 09:17:43;;;;;;;22.55;11.68;;;;;;;-2.64;96.92;102510.31;4929759;28;20027;-72
2021/12/22 09:20:08;;;;;;;24.92;12.90;;;;;;;-2.66;96.28;102491.91;4959305;28;20031;-72
2021/12/22 09:22:34;;;;;;;30.98;12.60;;;;;;;-2.33;95.78;102519.19;4955775;28;20037;-71
2021/12/22 09:24:59;;;;;;;27.67;12.65;;;;;;;-2.26;95.47;102510.44;4959894;28;20034;-72
2021/12/22 09:27:24;;;;;;;26.83;14.30;;;;;;;-2.03;95.27;102499.06;4942108;28;20131;-71
2021/12/22 09:29:50;;;;;;;25.63;12.75;;;;;;;-2.14;95.39;102498.19;4958711;28;20042;-72
2021/12/22 09:32:17;;;;;;;25.20;11.55;;;;;;;-2.03;94.79;102498.22;4957536;28;20041;-72
2021/12/22 09:34:44;;;;;;;28.33;12.32;;;;;;;-1.65;93.93;102510.50;4962941;28;20075;-72
2021/12/22 09:37:09;;;;;;;26.38;12.57;;;;;;;-1.24;92.70;102514.91;4957655;28;20137;-72
2021/12/22 09:39:35;;;;;;;24.10;11.90;;;;;;;-1.03;91.00;102517.47;4943155;28;20022;-72
2021/12/22 09:42:00;;;;;;;23.52;13.05;;;;;;;-0.79;89.62;102498.06;4948260;28;20173;-72
2021/12/22 09:44:31;;;;;;;25.33;11.43;;;;;;;-0.51;88.66;102516.44;4964798;28;20026;-72
2021/12/22 09:46:57;;;;;;;25.77;10.75;;;;;;;-0.78;88.83;102495.41;4944307;28;20382;-72
2021/12/22 09:52:17;;;;;;;24.67;13.45;;;;;;;-0.35;87.29;102490.84;4961109;28;20039;-74
2021/12/22 09:54:42;;;;;;;23.92;12.38;;;;;;;-0.27;87.12;102517.19;4962154;28;20476;-73
2021/12/22 09:57:08;;;;;;;22.92;11.00;;;;;;;-0.09;86.71;102500.38;4945753;28;20046;-73
2021/12/22 09:59:33;;;;;;;22.80;11.15;;;;;;;0.03;85.76;102495.00;4942996;28;20115;-72
2021/12/22 10:01:59;;;;;;;25.88;11.70;;;;;;;-0.01;85.91;102494.16;4963319;28;20027;-72
2021/12/22 10:04:24;;;;;;;30.13;11.95;;;;;;;-0.24;86.08;102485.50;4948643;28;20503;-73
2021/12/22 10:06:49;;;;;;;21.75;10.75;;;;;;;-0.07;86.44;102499.47;4946063;28;20043;-73
2021/12/22 10:09:21;;;;;;;22.67;10.88;;;;;;;-0.13;85.13;102499.50;4941006;28;20042;-73
2021/12/22 10:11:47;;;;;;;21.63;11.40;;;;;;;-0.01;85.00;102507.34;4955453;28;20061;-73
2021/12/22 10:14:25;;;;;;;21.27;10.90;;;;;;;0.29;84.07;102497.44;4943361;28;20033;-73
2021/12/22 10:16:53;;;;;;;16.80;10.57;;;;;;;0.39;83.95;102497.38;4960809;28;20026;-73
2021/12/22 10:19:19;;;;;;;23.80;11.68;;;;;;;0.21;85.27;102482.56;4939140;28;20034;-73
2021/12/22 10:22:00;;;;;;;21.45;12.02;;;;;;;0.32;84.79;102493.91;4943715;28;20042;-74
2021/12/22 10:24:37;;;;;;;19.27;10.48;;;;;;;0.11;84.61;102484.41;4928433;28;20050;-73
2021/12/22 10:27:05;;;;;;;22.55;11.23;;;;;;;0.17;84.69;102481.69;4942756;28;20027;-73
2021/12/22 10:29:32;;;;;;;16.95;10.93;;;;;;;0.19;85.24;102479.06;4957369;28;20035;-73
2021/12/22 10:32:07;;;;;;;20.77;11.57;;;;;;;0.22;83.82;102482.53;4959513;28;20119;-73
2021/12/22 10:34:32;;;;;;;22.88;11.45;;;;;;;-0.08;85.51;102462.53;4948391;28;20073;-73
2021/12/22 10:36:58;;;;;;;23.38;11.52;;;;;;;0.14;84.93;102472.03;4943433;28;20415;-73
2021/12/22 10:39:28;;;;;;;25.33;12.93;;;;;;;0.32;85.46;102472.75;4957092;28;20035;-73
2021/12/22 10:42:08;;;;;;;18.85;11.00;;;;;;;0.62;84.79;102473.38;4924480;28;20043;-73
2021/12/22 10:44:39;;;;;;;24.95;12.32;;;;;;;0.41;84.69;102471.78;4925767;28;20031;-74
2021/12/22 10:47:15;;;;;;;24.00;12.35;;;;;;;0.63;84.54;102471.63;4962149;28;20022;-74
2021/12/22 10:49:40;;;;;;;23.40;12.00;;;;;;;1.13;83.85;102456.06;4959264;28;20365;-73
2021/12/22 10:52:05;;;;;;;29.13;12.88;;;;;;;1.29;81.99;102451.47;4960948;28;20057;-74
2021/12/22 10:54:36;;;;;;;20.70;11.63;;;;;;;1.77;80.84;102445.50;4942033;28;20038;-74
2021/12/22 10:57:10;;;;;;;21.38;10.38;;;;;;;2.47;77.98;102452.31;4944478;28;20038;-74
2021/12/22 10:59:49;;;;;;;16.73;10.63;;;;;;;2.79;75.97;102456.13;4939480;28;20126;-74
2021/12/22 11:02:24;;;;;;;24.13;12.10;;;;;;;2.65;74.96;102437.88;4958053;28;20066;-75
2021/12/22 11:04:50;;;;;;;19.30;10.98;;;;;;;2.91;75.35;102440.00;4957308;28;20391;-74
2021/12/22 11:07:27;;;;;;;18.52;11.27;;;;;;;3.62;74.71;102444.69;4961660;28;20030;-75
2021/12/22 11:09:52;;;;;;;19.30;11.45;;;;;;;3.63;70.91;102425.19;4956718;28;20332;-75
2021/12/22 11:12:33;;;;;;;17.30;11.02;;;;;;;4.00;72.86;102425.19;4960764;28;20359;-75
2021/12/22 11:14:58;;;;;;;19.40;11.90;;;;;;;3.95;70.06;102426.22;4956459;28;20031;-75
2021/12/22 11:17:24;;;;;;;16.48;10.43;;;;;;;4.10;69.20;102423.19;4960285;28;20066;-73
2021/12/22 11:20:04;;;;;;;21.52;11.68;;;;;;;4.08;69.25;102426.78;4936211;28;20192;-75